Time;durP1;ratioP1;P1;durP2;ratioP2;P2;SDS_P1;SDS_P2;PMS_P1;PMS_P2;Temp;Humidity;BMP_temperature;BMP_pressure;BME280_temperature;BME280_humidity;BME280_pressure;Samples;Min_cycle;Max_cycle;Signal;HPM_P1;HPM_P2
2023/10/30 00:00:34;;;;;;;;;;;13.20;99.90;;;;;;4940196;29;20409;-85
2023/10/30 00:03:00;;;;;;;;;;;13.20;99.90;;;;;;4939639;29;20306;-79
2023/10/30 00:05:25;;;;;;;;;;;13.20;99.90;;;;;;4939599;29;19906;-85
2023/10/30 00:07:51;;;;;;;;;;;13.30;99.90;;;;;;4957372;29;19910;-86
2023/10/30 00:10:16;;;;;;;;;;;13.20;99.90;;;;;;4936631;29;19911;-86
2023/10/30 00:12:42;;;;;;;;;;;13.30;99.90;;;;;;4924079;29;20367;-79
2023/10/30 00:15:08;;;;;;;;;;;13.30;99.90;;;;;;4901537;29;19917;-79
2023/10/30 00:17:34;;;;;;;;;;;13.30;99.90;;;;;;4901550;29;19920;-80
2023/10/30 00:19:59;;;;;;;;;;;13.30;99.90;;;;;;4913794;29;20315;-84
2023/10/30 00:22:25;;;;;;;;;;;13.30;99.90;;;;;;4966561;28;19926;-85
2023/10/30 00:24:50;;;;;;;;;;;13.30;99.90;;;;;;4955888;28;19915;-79
2023/10/30 00:27:16;;;;;;;;;;;13.40;99.90;;;;;;4937513;29;19911;-86
2023/10/30 00:29:42;;;;;;;;;;;13.40;99.90;;;;;;4937275;29;20287;-80
2023/10/30 00:32:08;;;;;;;;;;;13.40;99.90;;;;;;4937342;29;19992;-80
2023/10/30 00:34:33;;;;;;;;;;;13.40;99.90;;;;;;4937516;29;19958;-87
2023/10/30 00:36:59;;;;;;;;;;;13.40;99.90;;;;;;4937112;29;20286;-80
2023/10/30 00:39:25;;;;;;;;;;;13.40;99.90;;;;;;4936745;29;19922;-80
2023/10/30 00:41:51;;;;;;;;;;;13.40;99.90;;;;;;4930076;29;19907;-80
2023/10/30 00:44:16;;;;;;;;;;;13.40;99.90;;;;;;4935744;29;20290;-86
2023/10/30 00:46:43;;;;;;;;;;;13.40;99.90;;;;;;4937201;29;19910;-80
2023/10/30 00:49:08;;;;;;;;;;;13.40;99.90;;;;;;4941375;28;19923;-86
2023/10/30 00:51:34;;;;;;;;;;;13.40;99.90;;;;;;4936890;29;19958;-80
2023/10/30 00:53:59;;;;;;;;;;;13.40;99.90;;;;;;4937047;29;20293;-86
2023/10/30 00:56:25;;;;;;;;;;;13.40;99.90;;;;;;4936591;29;19913;-80
2023/10/30 00:58:50;;;;;;;;;;;13.40;99.90;;;;;;4935568;29;20009;-80
2023/10/30 01:01:17;;;;;;;;;;;13.40;99.90;;;;;;4938668;29;19906;-86
2023/10/30 01:03:43;;;;;;;;;;;13.40;99.90;;;;;;4955528;29;19914;-86
2023/10/30 01:06:09;;;;;;;;;;;13.40;99.90;;;;;;4956756;29;19965;-80
2023/10/30 01:08:34;;;;;;;;;;;13.40;99.90;;;;;;4941732;29;20310;-80
2023/10/30 01:11:00;;;;;;;;;;;13.40;99.90;;;;;;4928353;29;19906;-80
2023/10/30 01:13:26;;;;;;;;;;;13.40;99.90;;;;;;4900722;29;19907;-80
2023/10/30 01:15:55;;;;;;;;;;;13.40;99.90;;;;;;4900650;29;20290;-86
2023/10/30 01:18:20;;;;;;;;;;;13.40;99.90;;;;;;4907187;29;20295;-80
2023/10/30 01:20:46;;;;;;;;;;;13.50;99.90;;;;;;4924748;29;19903;-85
2023/10/30 01:23:13;;;;;;;;;;;13.40;99.90;;;;;;4922790;29;19911;-84
2023/10/30 01:25:38;;;;;;;;;;;13.40;99.90;;;;;;4916475;29;19950;-80
2023/10/30 01:28:04;;;;;;;;;;;13.40;99.90;;;;;;4915447;29;19954;-80
2023/10/30 01:30:29;;;;;;;;;;;13.40;99.90;;;;;;4917798;29;19914;-80
2023/10/30 01:32:55;;;;;;;;;;;13.40;99.90;;;;;;4916587;29;19907;-86
2023/10/30 01:35:20;;;;;;;;;;;13.40;99.90;;;;;;4918808;29;19907;-80
2023/10/30 01:37:46;;;;;;;;;;;13.30;99.90;;;;;;4917468;29;19957;-80
2023/10/30 01:40:11;;;;;;;;;;;13.30;99.90;;;;;;4908787;29;20279;-81
2023/10/30 01:42:37;;;;;;;;;;;13.30;99.90;;;;;;4917457;29;19914;-80
2023/10/30 01:45:02;;;;;;;;;;;13.30;99.90;;;;;;4915865;29;19914;-80
2023/10/30 01:47:28;;;;;;;;;;;13.40;99.90;;;;;;4917359;29;19914;-80
2023/10/30 01:49:54;;;;;;;;;;;13.30;99.90;;;;;;4915956;29;20005;-86
2023/10/30 01:52:20;;;;;;;;;;;13.40;99.90;;;;;;4919076;29;20302;-86
2023/10/30 01:54:46;;;;;;;;;;;13.40;99.90;;;;;;4916011;29;19962;-85
2023/10/30 01:57:13;;;;;;;;;;;13.40;99.90;;;;;;4917269;29;20405;-80
2023/10/30 01:59:39;;;;;;;;;;;13.40;99.90;;;;;;4915835;29;20005;-80
2023/10/30 02:02:05;;;;;;;;;;;13.40;99.90;;;;;;4905596;29;19963;-85
2023/10/30 02:04:30;;;;;;;;;;;13.40;99.90;;;;;;4921925;29;19907;-86
2023/10/30 02:06:57;;;;;;;;;;;13.40;99.90;;;;;;4905587;29;20306;-80
2023/10/30 02:09:23;;;;;;;;;;;13.40;99.90;;;;;;4920890;29;19907;-86
2023/10/30 02:11:49;;;;;;;;;;;13.40;99.90;;;;;;4897169;29;19911;-80
2023/10/30 02:14:14;;;;;;;;;;;13.40;99.90;;;;;;4885104;29;19971;-81
2023/10/30 02:16:40;;;;;;;;;;;13.40;99.90;;;;;;4885289;29;19943;-80
2023/10/30 02:19:06;;;;;;;;;;;13.40;99.90;;;;;;4920015;29;20002;-80
2023/10/30 02:21:32;;;;;;;;;;;13.40;99.90;;;;;;4936987;29;19910;-86
2023/10/30 02:24:04;;;;;;;;;;;13.40;99.90;;;;;;4938314;29;20394;-80
2023/10/30 02:26:30;;;;;;;;;;;13.00;99.90;;;;;;4938372;29;19910;-86
2023/10/30 02:28:57;;;;;;;;;;;12.90;99.90;;;;;;4939729;29;19938;-81
2023/10/30 02:31:25;;;;;;;;;;;12.60;99.90;;;;;;4938502;29;19954;-86
2023/10/30 02:33:51;;;;;;;;;;;12.50;99.90;;;;;;4938707;29;20290;-81
2023/10/30 02:36:16;;;;;;;;;;;12.50;99.90;;;;;;4957841;28;19898;-84
2023/10/30 02:38:42;;;;;;;;;;;12.50;99.90;;;;;;4942620;29;19921;-80
2023/10/30 02:41:07;;;;;;;;;;;12.50;99.90;;;;;;4931449;29;19918;-84
2023/10/30 02:43:33;;;;;;;;;;;12.50;99.90;;;;;;4938171;29;20378;-80
2023/10/30 02:45:58;;;;;;;;;;;12.50;99.90;;;;;;4937967;29;19911;-85
2023/10/30 02:48:24;;;;;;;;;;;12.40;99.90;;;;;;4938024;29;19964;-81
2023/10/30 02:50:49;;;;;;;;;;;12.50;99.90;;;;;;4938092;29;20025;-80
2023/10/30 02:53:15;;;;;;;;;;;12.40;99.90;;;;;;4939237;29;20263;-80
2023/10/30 02:55:40;;;;;;;;;;;12.40;99.90;;;;;;4946850;28;19915;-85
2023/10/30 02:58:06;;;;;;;;;;;12.30;99.90;;;;;;4937823;29;19906;-80
2023/10/30 03:00:31;;;;;;;;;;;12.30;99.90;;;;;;4941091;29;19906;-80
2023/10/30 03:02:57;;;;;;;;;;;12.30;99.90;;;;;;4958361;29;20017;-80
2023/10/30 03:05:22;;;;;;;;;;;12.40;99.90;;;;;;4940823;29;19913;-80
2023/10/30 03:07:48;;;;;;;;;;;12.40;99.90;;;;;;4957871;29;19914;-81
2023/10/30 03:10:13;;;;;;;;;;;12.40;99.90;;;;;;4939648;29;20393;-80
2023/10/30 03:12:39;;;;;;;;;;;12.40;99.90;;;;;;4945836;28;19914;-81
2023/10/30 03:15:05;;;;;;;;;;;12.40;99.90;;;;;;4964374;28;19895;-80
2023/10/30 03:17:30;;;;;;;;;;;12.30;99.90;;;;;;4927022;29;19954;-80
2023/10/30 03:19:56;;;;;;;;;;;12.40;99.90;;;;;;4938545;29;19950;-80
2023/10/30 03:22:23;;;;;;;;;;;12.40;99.90;;;;;;4937972;29;20374;-81
2023/10/30 03:24:48;;;;;;;;;;;12.30;99.90;;;;;;4937414;29;19911;-80
2023/10/30 03:27:14;;;;;;;;;;;12.20;99.90;;;;;;4937630;29;20271;-80
2023/10/30 03:29:40;;;;;;;;;;;12.30;99.90;;;;;;4937197;29;19910;-80
2023/10/30 03:32:05;;;;;;;;;;;12.20;99.90;;;;;;4940532;29;20281;-86
2023/10/30 03:34:33;;;;;;;;;;;12.20;99.90;;;;;;4961249;28;19926;-80
2023/10/30 03:36:59;;;;;;;;;;;12.30;99.90;;;;;;4937197;29;19906;-80
2023/10/30 03:39:24;;;;;;;;;;;12.20;99.90;;;;;;4937839;29;19974;-81
2023/10/30 03:41:50;;;;;;;;;;;12.30;99.90;;;;;;4930707;29;19906;-86
2023/10/30 03:44:17;;;;;;;;;;;12.20;99.90;;;;;;4938236;29;19907;-84
2023/10/30 03:46:43;;;;;;;;;;;12.20;99.90;;;;;;4936688;29;20342;-86
2023/10/30 03:49:08;;;;;;;;;;;12.20;99.90;;;;;;4936710;29;20017;-80
2023/10/30 03:51:34;;;;;;;;;;;12.20;99.90;;;;;;4936933;29;19906;-80
2023/10/30 03:53:59;;;;;;;;;;;12.20;99.90;;;;;;4937788;29;19907;-81
2023/10/30 03:56:25;;;;;;;;;;;12.30;99.90;;;;;;4944747;28;19910;-80
2023/10/30 03:58:51;;;;;;;;;;;12.30;99.90;;;;;;4936712;29;20366;-86
2023/10/30 04:01:16;;;;;;;;;;;12.30;99.90;;;;;;4948462;29;19934;-85
2023/10/30 04:03:41;;;;;;;;;;;12.20;99.90;;;;;;4939821;29;19906;-80
2023/10/30 04:06:07;;;;;;;;;;;12.20;99.90;;;;;;4939473;29;20345;-80
2023/10/30 04:08:33;;;;;;;;;;;12.30;99.90;;;;;;4939536;29;19914;-81
2023/10/30 04:10:58;;;;;;;;;;;12.20;99.90;;;;;;4948693;29;19939;-80
2023/10/30 04:13:24;;;;;;;;;;;12.20;99.90;;;;;;4902015;29;19994;-85
2023/10/30 04:15:49;;;;;;;;;;;12.20;99.90;;;;;;4918570;29;19906;-80
2023/10/30 04:18:15;;;;;;;;;;;12.20;99.90;;;;;;4901677;29;19993;-86
2023/10/30 04:20:40;;;;;;;;;;;12.20;99.90;;;;;;4921723;29;19910;-86
2023/10/30 04:23:06;;;;;;;;;;;12.10;99.90;;;;;;4935436;29;19910;-80
2023/10/30 04:25:31;;;;;;;;;;;12.10;99.90;;;;;;4936225;29;19907;-86
2023/10/30 04:27:57;;;;;;;;;;;12.10;99.90;;;;;;4936108;29;19914;-80
2023/10/30 04:30:22;;;;;;;;;;;12.00;99.90;;;;;;4936383;29;19907;-80
2023/10/30 04:32:48;;;;;;;;;;;12.00;99.90;;;;;;4936091;29;20306;-80
2023/10/30 04:35:13;;;;;;;;;;;12.10;99.90;;;;;;4935764;29;19907;-80
2023/10/30 04:37:39;;;;;;;;;;;12.10;99.90;;;;;;4936590;29;19910;-86
2023/10/30 04:40:04;;;;;;;;;;;12.10;99.90;;;;;;4936708;29;19914;-80
2023/10/30 04:42:30;;;;;;;;;;;12.00;99.90;;;;;;4935783;29;19907;-86
2023/10/30 04:44:56;;;;;;;;;;;12.00;99.90;;;;;;4935930;29;19914;-80
2023/10/30 04:47:21;;;;;;;;;;;12.10;99.90;;;;;;4935817;29;19910;-86
2023/10/30 04:49:47;;;;;;;;;;;12.00;99.90;;;;;;4936966;29;19906;-80
2023/10/30 04:52:13;;;;;;;;;;;12.00;99.90;;;;;;4935646;29;19962;-80
2023/10/30 04:54:39;;;;;;;;;;;12.10;99.90;;;;;;4940386;28;19974;-81
2023/10/30 04:57:05;;;;;;;;;;;12.10;99.90;;;;;;4938437;28;20379;-81
2023/10/30 04:59:30;;;;;;;;;;;12.00;99.90;;;;;;4935197;29;20393;-80
2023/10/30 05:01:56;;;;;;;;;;;12.00;99.90;;;;;;4938694;29;19906;-86
2023/10/30 05:04:21;;;;;;;;;;;12.00;99.90;;;;;;4956305;29;19910;-81
2023/10/30 05:06:48;;;;;;;;;;;11.90;99.90;;;;;;4957134;29;20016;-80
2023/10/30 05:09:13;;;;;;;;;;;11.90;99.90;;;;;;4939859;29;19906;-80
2023/10/30 05:11:39;;;;;;;;;;;12.00;99.90;;;;;;4920631;29;20340;-80
2023/10/30 05:14:05;;;;;;;;;;;12.00;99.90;;;;;;4917558;29;19911;-81
2023/10/30 05:16:31;;;;;;;;;;;12.00;99.90;;;;;;4931076;29;20001;-86
2023/10/30 05:18:56;;;;;;;;;;;12.00;99.90;;;;;;4937677;29;19990;-86
2023/10/30 05:21:22;;;;;;;;;;;12.00;99.90;;;;;;4946518;29;19911;-86
2023/10/30 05:23:48;;;;;;;;;;;12.00;99.90;;;;;;4935240;29;19954;-81
2023/10/30 05:26:14;;;;;;;;;;;12.00;99.90;;;;;;4936334;29;19932;-86
2023/10/30 05:28:39;;;;;;;;;;;12.00;99.90;;;;;;4935663;29;19913;-81
2023/10/30 05:31:05;;;;;;;;;;;11.90;99.90;;;;;;4935004;29;19907;-86
2023/10/30 05:33:31;;;;;;;;;;;11.90;99.90;;;;;;4936423;29;20290;-81
2023/10/30 05:35:57;;;;;;;;;;;11.90;99.90;;;;;;4936461;29;19907;-80
2023/10/30 05:38:22;;;;;;;;;;;11.90;99.90;;;;;;4933849;29;19917;-87
2023/10/30 05:40:48;;;;;;;;;;;11.90;99.90;;;;;;4937575;29;19914;-81
2023/10/30 05:43:14;;;;;;;;;;;11.90;99.90;;;;;;4955434;29;19907;-81
2023/10/30 05:45:39;;;;;;;;;;;11.90;99.90;;;;;;4938630;29;19906;-81
2023/10/30 05:48:05;;;;;;;;;;;11.90;99.90;;;;;;4940890;28;19914;-86
2023/10/30 05:50:31;;;;;;;;;;;11.90;99.90;;;;;;4938197;29;20440;-80
2023/10/30 05:52:56;;;;;;;;;;;11.90;99.90;;;;;;4938024;29;19906;-80
2023/10/30 05:55:22;;;;;;;;;;;11.90;99.90;;;;;;4956277;29;19914;-86
2023/10/30 05:57:47;;;;;;;;;;;11.90;99.90;;;;;;4955310;29;19907;-80
2023/10/30 06:00:13;;;;;;;;;;;11.90;99.90;;;;;;4936084;29;19913;-81
2023/10/30 06:02:39;;;;;;;;;;;11.90;99.90;;;;;;4934611;29;20009;-81
2023/10/30 06:05:06;;;;;;;;;;;11.90;99.90;;;;;;4948968;29;19906;-81
2023/10/30 06:07:32;;;;;;;;;;;11.90;99.90;;;;;;4942241;29;20393;-81
2023/10/30 06:09:58;;;;;;;;;;;11.90;99.90;;;;;;4936181;29;19907;-86
2023/10/30 06:12:23;;;;;;;;;;;12.00;99.90;;;;;;4911367;29;19997;-86
2023/10/30 06:14:49;;;;;;;;;;;12.00;99.90;;;;;;4919063;29;19997;-81
2023/10/30 06:17:15;;;;;;;;;;;11.90;99.90;;;;;;4935975;29;19907;-81
2023/10/30 06:19:41;;;;;;;;;;;11.90;99.90;;;;;;4921054;29;19925;-81
2023/10/30 06:22:06;;;;;;;;;;;11.90;99.90;;;;;;4935005;29;19907;-81
2023/10/30 06:24:32;;;;;;;;;;;11.90;99.90;;;;;;4934772;29;19914;-87
2023/10/30 06:26:57;;;;;;;;;;;11.90;99.90;;;;;;4935928;29;19915;-82
2023/10/30 06:29:23;;;;;;;;;;;12.00;99.90;;;;;;4937604;29;20009;-86
2023/10/30 06:31:48;;;;;;;;;;;11.90;99.90;;;;;;4932965;29;19945;-81
2023/10/30 06:34:14;;;;;;;;;;;12.00;99.90;;;;;;4934285;29;19906;-81
2023/10/30 06:36:39;;;;;;;;;;;12.00;99.90;;;;;;4922049;29;19918;-85
2023/10/30 06:39:05;;;;;;;;;;;12.00;99.90;;;;;;4916576;29;19919;-81
2023/10/30 06:41:30;;;;;;;;;;;12.00;99.90;;;;;;4934180;29;19907;-81
2023/10/30 06:43:56;;;;;;;;;;;11.90;99.90;;;;;;4934442;29;19914;-80
2023/10/30 06:46:21;;;;;;;;;;;12.00;99.90;;;;;;4934782;29;19914;-85
2023/10/30 06:48:47;;;;;;;;;;;12.00;99.90;;;;;;4939147;29;19906;-81
2023/10/30 06:51:12;;;;;;;;;;;12.00;99.90;;;;;;4939580;29;19907;-81
2023/10/30 06:53:38;;;;;;;;;;;12.00;99.90;;;;;;4938108;29;19910;-82
2023/10/30 06:56:03;;;;;;;;;;;12.00;99.90;;;;;;4937560;29;19918;-81
2023/10/30 06:58:29;;;;;;;;;;;12.00;99.90;;;;;;4938582;29;19906;-81
2023/10/30 07:01:02;;;;;;;;;;;12.00;99.90;;;;;;4933452;29;19915;-81
2023/10/30 07:03:28;;;;;;;;;;;12.10;99.90;;;;;;4939658;29;20306;-85
2023/10/30 07:05:53;;;;;;;;;;;12.10;99.90;;;;;;4937497;29;19907;-81
2023/10/30 07:08:19;;;;;;;;;;;12.00;99.90;;;;;;4937798;29;20381;-84
2023/10/30 07:10:44;;;;;;;;;;;12.00;99.90;;;;;;4944209;29;19934;-80
2023/10/30 07:13:10;;;;;;;;;;;12.00;99.90;;;;;;4937369;29;19989;-86
2023/10/30 07:15:35;;;;;;;;;;;12.00;99.90;;;;;;4939204;29;19917;-82
2023/10/30 07:18:01;;;;;;;;;;;12.00;99.90;;;;;;4936273;29;19914;-81
2023/10/30 07:20:27;;;;;;;;;;;12.00;99.90;;;;;;4924863;29;20327;-85
2023/10/30 07:22:52;;;;;;;;;;;12.10;99.90;;;;;;4917515;29;19997;-86
2023/10/30 07:25:18;;;;;;;;;;;12.10;99.90;;;;;;4930082;29;19958;-80
2023/10/30 07:27:43;;;;;;;;;;;12.10;99.90;;;;;;4918913;29;20005;-80
2023/10/30 07:30:09;;;;;;;;;;;12.10;99.90;;;;;;4916801;29;19966;-80
2023/10/30 07:32:34;;;;;;;;;;;12.10;99.90;;;;;;4918528;29;19919;-80
2023/10/30 07:35:00;;;;;;;;;;;12.10;99.90;;;;;;4903440;29;19908;-79
2023/10/30 07:37:26;;;;;;;;;;;12.10;99.90;;;;;;4927502;29;19910;-79
2023/10/30 07:39:52;;;;;;;;;;;12.10;99.90;;;;;;4921841;29;19919;-79
2023/10/30 07:42:18;;;;;;;;;;;12.10;99.90;;;;;;4914238;29;19974;-83
2023/10/30 07:44:44;;;;;;;;;;;12.20;99.90;;;;;;4917524;29;19918;-81
2023/10/30 07:47:09;;;;;;;;;;;12.20;99.90;;;;;;4916951;29;20465;-81
2023/10/30 07:49:35;;;;;;;;;;;12.20;99.90;;;;;;4919949;29;19917;-86
2023/10/30 07:52:00;;;;;;;;;;;12.20;99.90;;;;;;4930044;29;19910;-81
2023/10/30 07:54:26;;;;;;;;;;;12.20;99.90;;;;;;4897607;29;19914;-87
2023/10/30 07:56:51;;;;;;;;;;;12.20;99.90;;;;;;4898575;29;20371;-80
2023/10/30 07:59:17;;;;;;;;;;;12.30;99.90;;;;;;4917618;29;19915;-83
2023/10/30 08:01:44;;;;;;;;;;;12.30;99.90;;;;;;4926102;29;19977;-83
2023/10/30 08:04:09;;;;;;;;;;;12.30;99.90;;;;;;4914339;29;19915;-81
2023/10/30 08:06:35;;;;;;;;;;;12.40;99.90;;;;;;4921475;29;19966;-85
2023/10/30 08:09:01;;;;;;;;;;;12.40;99.90;;;;;;4920815;29;19958;-81
2023/10/30 08:11:27;;;;;;;;;;;12.40;99.90;;;;;;4931535;29;19913;-82
2023/10/30 08:13:52;;;;;;;;;;;12.50;99.90;;;;;;4903908;29;19962;-82
2023/10/30 08:16:18;;;;;;;;;;;12.50;99.90;;;;;;4899209;29;20403;-83
2023/10/30 08:18:43;;;;;;;;;;;12.50;99.90;;;;;;4910654;29;19998;-81
2023/10/30 08:21:09;;;;;;;;;;;12.60;99.90;;;;;;4910774;29;20002;-82
2023/10/30 08:23:36;;;;;;;;;;;12.60;99.90;;;;;;4900564;29;19915;-81
2023/10/30 08:26:03;;;;;;;;;;;12.70;99.90;;;;;;4920910;29;19998;-82
2023/10/30 08:28:29;;;;;;;;;;;12.70;99.90;;;;;;4897992;29;19927;-81
2023/10/30 08:30:55;;;;;;;;;;;12.70;99.90;;;;;;4910005;29;20579;-79
2023/10/30 08:33:20;;;;;;;;;;;12.70;99.90;;;;;;4899788;29;20435;-79
2023/10/30 08:35:46;;;;;;;;;;;12.80;99.90;;;;;;4902844;29;19961;-83
2023/10/30 08:38:12;;;;;;;;;;;12.90;99.90;;;;;;4913456;29;19915;-79
2023/10/30 08:40:38;;;;;;;;;;;12.90;99.90;;;;;;4912986;29;19946;-80
2023/10/30 08:43:03;;;;;;;;;;;13.00;99.90;;;;;;4908746;29;19915;-84
2023/10/30 08:45:29;;;;;;;;;;;13.10;99.90;;;;;;4916050;29;20275;-80
2023/10/30 08:47:54;;;;;;;;;;;13.20;99.90;;;;;;4894940;29;19919;-83
2023/10/30 08:50:20;;;;;;;;;;;13.40;99.90;;;;;;4904819;29;19911;-82
2023/10/30 08:52:45;;;;;;;;;;;13.60;99.90;;;;;;4922001;29;19973;-79
2023/10/30 08:55:11;;;;;;;;;;;13.70;99.90;;;;;;4923024;29;19906;-82
2023/10/30 08:57:36;;;;;;;;;;;13.80;99.90;;;;;;4913313;29;20338;-80
2023/10/30 09:00:06;;;;;;;;;;;13.80;99.90;;;;;;4881398;29;19915;-84
2023/10/30 09:02:31;;;;;;;;;;;13.50;99.90;;;;;;4915568;29;19965;-81
2023/10/30 09:04:57;;;;;;;;;;;13.30;99.90;;;;;;4880785;29;19912;-84
2023/10/30 09:07:22;;;;;;;;;;;13.30;99.90;;;;;;4898119;29;19919;-82
2023/10/30 09:09:48;;;;;;;;;;;13.40;99.90;;;;;;4897332;29;20327;-84
2023/10/30 09:12:13;;;;;;;;;;;13.50;99.90;;;;;;4906751;29;19925;-79
2023/10/30 09:14:39;;;;;;;;;;;13.50;99.90;;;;;;4915559;29;19918;-82
2023/10/30 09:17:08;;;;;;;;;;;13.80;99.90;;;;;;4917466;29;19919;-83
2023/10/30 09:19:34;;;;;;;;;;;14.20;99.90;;;;;;4918176;29;19961;-81
2023/10/30 09:21:59;;;;;;;;;;;14.40;99.90;;;;;;4917998;29;19962;-81
2023/10/30 09:24:26;;;;;;;;;;;14.90;99.90;;;;;;4934658;29;19899;-80
2023/10/30 09:26:52;;;;;;;;;;;15.30;99.90;;;;;;4918931;29;19946;-82
2023/10/30 09:29:17;;;;;;;;;;;15.30;99.90;;;;;;4916413;29;20006;-80
2023/10/30 09:31:44;;;;;;;;;;;15.30;99.90;;;;;;4908745;29;20450;-83
2023/10/30 09:34:10;;;;;;;;;;;15.20;99.90;;;;;;4930768;29;19938;-82
2023/10/30 09:36:35;;;;;;;;;;;15.00;99.90;;;;;;4924553;29;20366;-82
2023/10/30 09:39:01;;;;;;;;;;;15.00;99.90;;;;;;4926615;29;19966;-83
2023/10/30 09:41:27;;;;;;;;;;;15.10;99.90;;;;;;4934534;29;20507;-81
2023/10/30 09:43:53;;;;;;;;;;;14.90;99.90;;;;;;4934415;29;19907;-82
2023/10/30 09:46:21;;;;;;;;;;;14.90;99.90;;;;;;4917547;29;19919;-80
2023/10/30 09:48:48;;;;;;;;;;;14.70;99.90;;;;;;4933128;29;19910;-81
2023/10/30 09:51:14;;;;;;;;;;;14.70;99.90;;;;;;4933931;29;20267;-81
2023/10/30 09:53:40;;;;;;;;;;;14.60;99.90;;;;;;4934850;29;19913;-85
2023/10/30 09:56:08;;;;;;;;;;;14.50;99.90;;;;;;4918403;29;19915;-83
2023/10/30 09:58:35;;;;;;;;;;;14.40;99.90;;;;;;4915870;29;20434;-82
2023/10/30 10:01:00;;;;;;;;;;;14.20;99.90;;;;;;4924254;29;20011;-84
2023/10/30 10:03:26;;;;;;;;;;;14.00;99.90;;;;;;4912885;29;20440;-83
2023/10/30 10:05:58;;;;;;;;;;;14.10;99.90;;;;;;4915889;29;19911;-84
2023/10/30 10:08:24;;;;;;;;;;;14.10;99.90;;;;;;4903057;29;20001;-83
2023/10/30 10:10:53;;;;;;;;;;;14.80;99.90;;;;;;4924745;29;20382;-81
2023/10/30 10:13:18;;;;;;;;;;;15.40;99.90;;;;;;4914570;29;19955;-85
2023/10/30 10:15:44;;;;;;;;;;;15.50;99.90;;;;;;4898672;29;19919;-83
2023/10/30 10:18:21;;;;;;;;;;;15.70;99.90;;;;;;4897280;29;19923;-84
2023/10/30 10:20:58;;;;;;;;;;;15.70;99.90;;;;;;4913010;29;19953;-82
2023/10/30 10:23:25;;;;;;;;;;;15.50;99.90;;;;;;4915809;29;20379;-85
2023/10/30 10:25:55;;;;;;;;;;;15.40;99.90;;;;;;4900448;29;19914;-82
2023/10/30 10:28:24;;;;;;;;;;;15.10;99.90;;;;;;4917853;29;20306;-81
2023/10/30 10:30:51;;;;;;;;;;;15.10;99.90;;;;;;4916584;29;19918;-82
2023/10/30 10:33:18;;;;;;;;;;;15.30;99.90;;;;;;4914667;29;20282;-83
2023/10/30 10:35:44;;;;;;;;;;;15.40;99.90;;;;;;4905155;29;19939;-82
2023/10/30 10:38:11;;;;;;;;;;;15.40;99.90;;;;;;4917945;29;20359;-82
2023/10/30 10:40:40;;;;;;;;;;;15.40;99.90;;;;;;4912008;29;20391;-82
2023/10/30 10:43:06;;;;;;;;;;;15.30;99.90;;;;;;4918337;29;19939;-80
2023/10/30 10:45:32;;;;;;;;;;;15.40;99.90;;;;;;4900598;29;19907;-81
2023/10/30 10:47:57;;;;;;;;;;;15.40;99.90;;;;;;4899505;29;19915;-81
2023/10/30 10:50:23;;;;;;;;;;;15.60;99.90;;;;;;4908091;29;20025;-81
2023/10/30 10:52:48;;;;;;;;;;;15.60;99.90;;;;;;4917678;29;19915;-81
2023/10/30 10:55:17;;;;;;;;;;;15.60;99.90;;;;;;4919393;29;20579;-85
2023/10/30 10:57:51;;;;;;;;;;;15.50;99.90;;;;;;4917935;29;19907;-81
2023/10/30 11:00:17;;;;;;;;;;;15.60;99.90;;;;;;4907844;29;19925;-81
2023/10/30 11:02:45;;;;;;;;;;;15.60;99.90;;;;;;4937362;29;19910;-81
2023/10/30 11:05:10;;;;;;;;;;;15.70;99.90;;;;;;4907171;29;19967;-81
2023/10/30 11:07:40;;;;;;;;;;;15.80;99.90;;;;;;4914513;29;19911;-82
2023/10/30 11:10:09;;;;;;;;;;;15.90;99.90;;;;;;4905813;29;19912;-79
2023/10/30 11:12:53;;;;;;;;;;;16.00;99.90;;;;;;4923083;29;19911;-82
2023/10/30 11:15:25;;;;;;;;;;;15.90;99.90;;;;;;4900773;29;20013;-81
2023/10/30 11:18:11;;;;;;;;;;;15.70;99.90;;;;;;4907302;29;19919;-82
2023/10/30 11:20:36;;;;;;;;;;;15.80;99.90;;;;;;4903160;29;20386;-84
2023/10/30 11:23:02;;;;;;;;;;;15.90;99.90;;;;;;4917686;29;20010;-85
2023/10/30 11:25:36;;;;;;;;;;;15.80;99.90;;;;;;4901793;29;19911;-81
2023/10/30 11:28:02;;;;;;;;;;;15.80;99.90;;;;;;4894451;29;19922;-82
2023/10/30 11:30:31;;;;;;;;;;;15.90;99.90;;;;;;4900526;29;20375;-81
2023/10/30 11:32:57;;;;;;;;;;;15.70;99.90;;;;;;4903193;29;19908;-83
2023/10/30 11:35:23;;;;;;;;;;;15.30;99.90;;;;;;4902029;29;19911;-81
2023/10/30 11:37:49;;;;;;;;;;;13.70;99.90;;;;;;4915081;29;20182;-81
2023/10/30 11:40:15;;;;;;;;;;;13.00;99.90;;;;;;4922036;29;19903;-80
2023/10/30 11:42:44;;;;;;;;;;;13.10;99.90;;;;;;4900057;29;20058;-82
2023/10/30 11:45:17;;;;;;;;;;;13.20;99.90;;;;;;4891794;29;20356;-82
2023/10/30 11:47:45;;;;;;;;;;;13.10;99.90;;;;;;4897132;29;19910;-82
2023/10/30 11:50:11;;;;;;;;;;;13.50;99.90;;;;;;4916449;29;19922;-82
2023/10/30 11:52:40;;;;;;;;;;;13.40;99.90;;;;;;4909802;29;19907;-80
2023/10/30 11:55:06;;;;;;;;;;;13.60;99.90;;;;;;4899536;29;19955;-87
2023/10/30 11:57:33;;;;;;;;;;;13.70;99.90;;;;;;4882188;29;20313;-83
2023/10/30 11:59:59;;;;;;;;;;;13.90;99.90;;;;;;4892695;29;19911;-82
2023/10/30 12:02:24;;;;;;;;;;;14.10;99.90;;;;;;4901555;29;19911;-81
2023/10/30 12:04:50;;;;;;;;;;;14.40;99.90;;;;;;4910055;29;21614;-85
2023/10/30 12:07:16;;;;;;;;;;;14.40;99.90;;;;;;4918166;29;19922;-84
2023/10/30 12:09:41;;;;;;;;;;;14.50;99.90;;;;;;4916190;29;20402;-83
2023/10/30 12:12:08;;;;;;;;;;;14.90;99.90;;;;;;4908028;29;19912;-82
2023/10/30 12:14:33;;;;;;;;;;;14.70;99.90;;;;;;4881354;29;19912;-82
2023/10/30 12:16:59;;;;;;;;;;;15.00;99.90;;;;;;4887541;29;20347;-83
2023/10/30 12:19:24;;;;;;;;;;;15.10;99.90;;;;;;4915808;29;20374;-84
2023/10/30 12:21:50;;;;;;;;;;;15.40;99.90;;;;;;4916197;29;19911;-82
2023/10/30 12:24:19;;;;;;;;;;;15.80;99.90;;;;;;4904245;29;20002;-83
2023/10/30 12:26:46;;;;;;;;;;;16.40;99.90;;;;;;4914681;29;19919;-84
2023/10/30 12:29:19;;;;;;;;;;;16.70;99.90;;;;;;4929537;29;19919;-80
2023/10/30 12:31:44;;;;;;;;;;;17.00;99.90;;;;;;4905355;29;20005;-81
2023/10/30 12:34:11;;;;;;;;;;;17.40;99.90;;;;;;4918646;29;19969;-82
2023/10/30 12:36:37;;;;;;;;;;;17.60;99.90;;;;;;4910787;29;20389;-83
2023/10/30 12:39:12;;;;;;;;;;;17.90;99.90;;;;;;4913000;29;19916;-84
2023/10/30 12:41:37;;;;;;;;;;;17.40;99.90;;;;;;4915529;29;19966;-82
2023/10/30 12:44:03;;;;;;;;;;;17.10;99.90;;;;;;4914285;29;19911;-81
2023/10/30 12:46:28;;;;;;;;;;;16.60;99.90;;;;;;4915558;29;20394;-82
2023/10/30 12:48:54;;;;;;;;;;;16.60;99.90;;;;;;4916554;29;19907;-82
2023/10/30 12:51:19;;;;;;;;;;;16.60;99.90;;;;;;4911503;29;19914;-83
2023/10/30 12:53:45;;;;;;;;;;;16.30;99.90;;;;;;4916109;29;20331;-82
2023/10/30 12:56:11;;;;;;;;;;;16.50;99.90;;;;;;4915216;29;20282;-85
2023/10/30 12:58:36;;;;;;;;;;;16.60;99.90;;;;;;4916092;29;19918;-85
2023/10/30 13:01:03;;;;;;;;;;;16.60;99.90;;;;;;4914217;29;19918;-82
2023/10/30 13:03:29;;;;;;;;;;;16.60;99.90;;;;;;4915910;29;19947;-82
2023/10/30 13:05:54;;;;;;;;;;;16.50;99.90;;;;;;4907721;29;19907;-82
2023/10/30 13:08:20;;;;;;;;;;;16.50;99.90;;;;;;4915454;29;19915;-84
2023/10/30 13:10:46;;;;;;;;;;;16.30;99.90;;;;;;4914457;29;19907;-81
2023/10/30 13:13:16;;;;;;;;;;;16.40;99.90;;;;;;4920403;29;19918;-83
2023/10/30 13:15:45;;;;;;;;;;;16.60;99.90;;;;;;4904725;29;19915;-84
2023/10/30 13:18:11;;;;;;;;;;;16.70;99.90;;;;;;4926611;29;19918;-82
2023/10/30 13:20:37;;;;;;;;;;;16.50;99.90;;;;;;4936482;29;19977;-82
2023/10/30 13:23:03;;;;;;;;;;;16.50;99.90;;;;;;4957079;29;19906;-81
2023/10/30 13:25:29;;;;;;;;;;;16.50;99.90;;;;;;4938587;29;19919;-85
2023/10/30 13:27:54;;;;;;;;;;;16.60;99.90;;;;;;4924096;29;19910;-82
2023/10/30 13:30:21;;;;;;;;;;;16.80;99.90;;;;;;4934562;29;19911;-82
2023/10/30 13:32:46;;;;;;;;;;;16.80;99.90;;;;;;4920983;29;20010;-81
2023/10/30 13:35:12;;;;;;;;;;;16.30;99.90;;;;;;4915626;29;20081;-82
2023/10/30 13:37:37;;;;;;;;;;;16.00;99.90;;;;;;4900162;29;19908;-87
2023/10/30 13:40:03;;;;;;;;;;;16.40;99.90;;;;;;4929246;29;19918;-81
2023/10/30 13:42:29;;;;;;;;;;;16.10;99.90;;;;;;4933318;29;19914;-82
2023/10/30 13:44:54;;;;;;;;;;;16.00;99.90;;;;;;4925315;29;19914;-87
2023/10/30 13:47:20;;;;;;;;;;;16.30;99.90;;;;;;4917367;29;19918;-86
2023/10/30 13:49:46;;;;;;;;;;;16.30;99.90;;;;;;4935871;29;19915;-81
2023/10/30 13:52:13;;;;;;;;;;;16.10;99.90;;;;;;4940982;29;19916;-88
2023/10/30 13:54:38;;;;;;;;;;;16.50;99.90;;;;;;4931278;29;20370;-87
2023/10/30 13:57:04;;;;;;;;;;;16.90;99.90;;;;;;4940224;29;19917;-81
2023/10/30 13:59:29;;;;;;;;;;;17.30;99.90;;;;;;4935110;29;19906;-83
2023/10/30 14:01:55;;;;;;;;;;;17.30;99.90;;;;;;4931798;29;19906;-81
2023/10/30 14:04:21;;;;;;;;;;;17.40;99.90;;;;;;4935601;29;19914;-84
2023/10/30 14:06:46;;;;;;;;;;;17.50;99.90;;;;;;4915735;29;19969;-80
2023/10/30 14:09:12;;;;;;;;;;;17.70;99.90;;;;;;4914731;29;19911;-80